Time;durP1;ratioP1;P1;durP2;ratioP2;P2;SDS_P1;SDS_P2;PMS_P1;PMS_P2;Temp;Humidity;BMP_temperature;BMP_pressure;BME280_temperature;BME280_humidity;BME280_pressure;Samples;Min_cycle;Max_cycle;Signal;HPM_P1;HPM_P2
2022/11/27 00:00:59;;;;;;;176.80;28.83;;;;;;;;;;4999887;28;20038;-82
2022/11/27 00:03:27;;;;;;;105.10;21.48;;;;;;;;;;5003636;28;20058;-82
2022/11/27 00:05:56;;;;;;;83.85;20.23;;;;;;;;;;4977992;28;20395;-82
2022/11/27 00:08:23;;;;;;;232.95;28.45;;;;;;;;;;5001477;28;20583;-82
2022/11/27 00:10:49;;;;;;;159.27;24.27;;;;;;;;;;4995100;28;20037;-82
2022/11/27 00:13:18;;;;;;;175.18;28.40;;;;;;;;;;4985215;28;20026;-82
2022/11/27 00:15:46;;;;;;;177.68;24.38;;;;;;;;;;4983048;28;20038;-82
2022/11/27 00:18:14;;;;;;;147.70;23.42;;;;;;;;;;5004759;28;20034;-83
2022/11/27 00:20:42;;;;;;;136.25;19.58;;;;;;;;;;4994509;28;20038;-82
2022/11/27 00:23:08;;;;;;;133.85;19.45;;;;;;;;;;4974190;28;20034;-82
2022/11/27 00:25:36;;;;;;;161.05;25.05;;;;;;;;;;5001053;28;20461;-82
2022/11/27 00:28:02;;;;;;;88.20;16.80;;;;;;;;;;4981801;28;20108;-82
2022/11/27 00:30:27;;;;;;;122.63;16.77;;;;;;;;;;5004024;28;20026;-82
2022/11/27 00:32:55;;;;;;;80.75;16.27;;;;;;;;;;5003432;28;20022;-82
2022/11/27 00:35:21;;;;;;;94.38;16.92;;;;;;;;;;4981595;28;20563;-82
2022/11/27 00:37:50;;;;;;;104.40;18.92;;;;;;;;;;4976911;28;20044;-82
2022/11/27 00:40:15;;;;;;;155.15;22.10;;;;;;;;;;4997019;28;20499;-83
2022/11/27 00:42:41;;;;;;;100.78;21.08;;;;;;;;;;4985633;28;20038;-82
2022/11/27 00:45:11;;;;;;;166.30;19.27;;;;;;;;;;5002381;28;20030;-82
2022/11/27 00:47:37;;;;;;;118.20;19.42;;;;;;;;;;4997295;28;20034;-82
2022/11/27 00:50:03;;;;;;;184.40;24.73;;;;;;;;;;4977714;28;20026;-82
2022/11/27 00:52:32;;;;;;;99.47;16.40;;;;;;;;;;4982322;28;20499;-82
2022/11/27 00:55:02;;;;;;;202.15;23.63;;;;;;;;;;4990713;28;20122;-82
2022/11/27 00:57:28;;;;;;;134.27;20.10;;;;;;;;;;4996453;28;20026;-82
2022/11/27 00:59:56;;;;;;;116.45;20.17;;;;;;;;;;4993373;28;20034;-82
2022/11/27 01:02:22;;;;;;;170.65;19.38;;;;;;;;;;4982854;28;20141;-82
2022/11/27 01:04:50;;;;;;;173.60;23.52;;;;;;;;;;4999023;28;20539;-82
2022/11/27 01:07:16;;;;;;;114.88;19.83;;;;;;;;;;5000753;28;20484;-82
2022/11/27 01:09:42;;;;;;;89.82;19.67;;;;;;;;;;4993296;28;20085;-82
2022/11/27 01:12:08;;;;;;;94.47;18.10;;;;;;;;;;4979538;28;20026;-82
2022/11/27 01:14:34;;;;;;;130.63;18.35;;;;;;;;;;5000953;28;20040;-82
2022/11/27 01:17:04;;;;;;;121.25;22.90;;;;;;;;;;4996181;28;20042;-82
2022/11/27 01:19:36;;;;;;;65.82;17.98;;;;;;;;;;4992478;28;20042;-82
2022/11/27 01:22:02;;;;;;;106.10;17.67;;;;;;;;;;4970598;28;20061;-82
2022/11/27 01:24:31;;;;;;;110.10;16.85;;;;;;;;;;4988102;23;20058;-75
2022/11/27 01:26:57;;;;;;;132.57;19.17;;;;;;;;;;4991325;28;20026;-75
2022/11/27 01:29:23;;;;;;;146.35;19.92;;;;;;;;;;4976094;28;20037;-75
2022/11/27 01:31:49;;;;;;;39.92;13.07;;;;;;;;;;5013498;28;20029;-75
2022/11/27 01:34:18;;;;;;;58.08;15.48;;;;;;;;;;5014646;28;20029;-75
2022/11/27 01:36:44;;;;;;;106.43;19.98;;;;;;;;;;4988250;28;20030;-75
2022/11/27 01:39:17;;;;;;;114.82;18.15;;;;;;;;;;5015799;28;20086;-76
2022/11/27 01:41:44;;;;;;;60.05;15.05;;;;;;;;;;5012849;28;20029;-76
2022/11/27 01:44:24;;;;;;;79.38;15.80;;;;;;;;;;5023619;28;20034;-76
2022/11/27 01:46:58;;;;;;;84.13;17.43;;;;;;;;;;5010069;28;20514;-76
2022/11/27 01:49:26;;;;;;;87.50;17.15;;;;;;;;;;5021232;28;20268;-76
2022/11/27 01:52:00;;;;;;;54.92;12.63;;;;;;;;;;5001120;28;20384;-76
2022/11/27 01:54:27;;;;;;;165.88;24.33;;;;;;;;;;4997970;28;20025;-76
2022/11/27 01:56:55;;;;;;;64.88;15.93;;;;;;;;;;5010362;28;20041;-76
2022/11/27 01:59:21;;;;;;;94.30;17.83;;;;;;;;;;5013303;28;20026;-76
2022/11/27 02:01:47;;;;;;;82.63;16.00;;;;;;;;;;5013415;28;20029;-76
2022/11/27 02:04:13;;;;;;;116.18;20.05;;;;;;;;;;4985989;28;20088;-76
2022/11/27 02:06:39;;;;;;;70.80;13.60;;;;;;;;;;4996217;28;20033;-76
2022/11/27 02:09:11;;;;;;;76.30;12.60;;;;;;;;;;5007299;28;20034;-76
2022/11/27 02:11:43;;;;;;;149.23;17.70;;;;;;;;;;5013308;28;20483;-76
2022/11/27 02:14:27;;;;;;;153.05;20.50;;;;;;;;;;5018267;28;20033;-76
2022/11/27 02:16:56;;;;;;;103.95;16.45;;;;;;;;;;5009365;28;20030;-76
2022/11/27 02:19:26;;;;;;;84.28;17.10;;;;;;;;;;5008704;28;20034;-76
2022/11/27 02:21:59;;;;;;;86.40;15.48;;;;;;;;;;5012336;28;20034;-76
2022/11/27 02:24:32;;;;;;;117.88;17.33;;;;;;;;;;5015551;28;20038;-76
2022/11/27 02:27:10;;;;;;;99.43;17.92;;;;;;;;;;5007956;28;20030;-73
2022/11/27 02:29:39;;;;;;;117.20;15.57;;;;;;;;;;5014794;28;20030;-75
2022/11/27 02:32:09;;;;;;;120.55;17.30;;;;;;;;;;5011078;28;20472;-75
2022/11/27 02:34:44;;;;;;;213.43;21.33;;;;;;;;;;4994258;28;20029;-77
2022/11/27 02:37:21;;;;;;;105.95;18.70;;;;;;;;;;5007932;28;20033;-75
2022/11/27 02:39:53;;;;;;;325.80;34.08;;;;;;;;;;5009986;28;20388;-74
2022/11/27 02:42:19;;;;;;;297.40;33.30;;;;;;;;;;5008810;28;20393;-75
2022/11/27 02:44:57;;;;;;;281.05;34.35;;;;;;;;;;5010850;28;20038;-74
2022/11/27 02:47:23;;;;;;;203.80;32.08;;;;;;;;;;5008022;28;20511;-75
2022/11/27 02:49:55;;;;;;;191.32;26.95;;;;;;;;;;5007768;28;20030;-75
2022/11/27 02:52:25;;;;;;;247.98;31.98;;;;;;;;;;4999409;28;20072;-75
2022/11/27 02:54:53;;;;;;;139.68;19.13;;;;;;;;;;5011655;28;20038;-75
2022/11/27 02:57:23;;;;;;;172.13;21.90;;;;;;;;;;5011967;28;20046;-75
2022/11/27 02:59:49;;;;;;;179.90;25.55;;;;;;;;;;4996663;28;20030;-75
2022/11/27 03:02:23;;;;;;;166.50;22.85;;;;;;;;;;5009965;28;20041;-76
2022/11/27 03:04:54;;;;;;;88.57;19.92;;;;;;;;;;5008914;28;20030;-76
2022/11/27 03:07:38;;;;;;;159.60;21.55;;;;;;;;;;5011387;28;20026;-75
2022/11/27 03:10:24;;;;;;;136.32;19.58;;;;;;;;;;5007273;28;20037;-75
2022/11/27 03:12:50;;;;;;;97.13;16.15;;;;;;;;;;4993850;28;20504;-76
2022/11/27 03:15:20;;;;;;;39.25;12.48;;;;;;;;;;5010868;28;20034;-74
2022/11/27 03:18:01;;;;;;;22.23;10.82;;;;;;;;;;5011616;28;20030;-75
2022/11/27 03:20:31;;;;;;;18.45;10.20;;;;;;;;;;4989200;28;20033;-74
2022/11/27 03:23:02;;;;;;;25.13;8.18;;;;;;;;;;5011555;28;20125;-74
2022/11/27 03:25:28;;;;;;;11.45;8.40;;;;;;;;;;5015467;28;20045;-75
2022/11/27 03:28:03;;;;;;;33.75;11.80;;;;;;;;;;5011151;28;21298;-74
2022/11/27 03:30:29;;;;;;;27.98;10.02;;;;;;;;;;5008236;28;20022;-75
2022/11/27 03:32:55;;;;;;;15.00;9.35;;;;;;;;;;4981699;28;20057;-75
2022/11/27 03:35:24;;;;;;;28.75;9.85;;;;;;;;;;5011407;28;20061;-74
2022/11/27 03:37:53;;;;;;;26.85;10.15;;;;;;;;;;5010937;28;20033;-75
2022/11/27 03:40:22;;;;;;;31.98;10.10;;;;;;;;;;5010187;28;20038;-74
2022/11/27 03:42:57;;;;;;;19.35;8.57;;;;;;;;;;5012136;28;20038;-75
2022/11/27 03:45:22;;;;;;;15.45;8.43;;;;;;;;;;5010495;28;20041;-75
2022/11/27 03:47:53;;;;;;;26.48;11.25;;;;;;;;;;5012025;28;20026;-74
2022/11/27 03:50:36;;;;;;;42.42;12.02;;;;;;;;;;5011052;28;20041;-75
2022/11/27 03:53:08;;;;;;;31.63;10.05;;;;;;;;;;5010570;28;20033;-74
2022/11/27 03:55:54;;;;;;;47.22;9.68;;;;;;;;;;5009148;28;20034;-74
2022/11/27 03:58:20;;;;;;;64.78;12.10;;;;;;;;;;4997480;28;20049;-74
2022/11/27 04:00:47;;;;;;;11.73;8.45;;;;;;;;;;5007719;28;20034;-75
2022/11/27 04:03:15;;;;;;;75.00;12.68;;;;;;;;;;5009765;28;20045;-75
2022/11/27 04:05:43;;;;;;;25.27;9.25;;;;;;;;;;5009852;28;20045;-76
2022/11/27 04:08:09;;;;;;;46.70;11.20;;;;;;;;;;4994397;28;20029;-75
2022/11/27 04:10:42;;;;;;;59.15;13.63;;;;;;;;;;5010231;28;20030;-75
2022/11/27 04:13:08;;;;;;;49.38;11.93;;;;;;;;;;5008482;28;20029;-76
2022/11/27 04:15:36;;;;;;;49.42;9.20;;;;;;;;;;4996806;28;20026;-74
2022/11/27 04:18:02;;;;;;;58.63;12.02;;;;;;;;;;5009820;28;20037;-75
2022/11/27 04:20:28;;;;;;;48.05;11.18;;;;;;;;;;4984769;28;20682;-75
2022/11/27 04:22:54;;;;;;;93.28;13.30;;;;;;;;;;4997272;28;20052;-75
2022/11/27 04:25:20;;;;;;;81.55;11.13;;;;;;;;;;5000850;28;20034;-75
2022/11/27 04:27:50;;;;;;;101.30;14.45;;;;;;;;;;5009899;28;20022;-75
2022/11/27 04:30:19;;;;;;;110.00;13.55;;;;;;;;;;5012185;28;20479;-74
2022/11/27 04:32:44;;;;;;;157.52;19.95;;;;;;;;;;5012995;28;20030;-75
2022/11/27 04:35:10;;;;;;;56.55;13.10;;;;;;;;;;5012690;28;20825;-75
2022/11/27 04:37:36;;;;;;;73.43;15.20;;;;;;;;;;5010899;28;20038;-75
2022/11/27 04:40:03;;;;;;;60.25;14.65;;;;;;;;;;5008441;28;20480;-75
2022/11/27 04:42:29;;;;;;;55.20;13.45;;;;;;;;;;5011361;28;20045;-75
2022/11/27 04:44:54;;;;;;;72.13;11.02;;;;;;;;;;4998131;28;20509;-75
2022/11/27 04:47:25;;;;;;;70.22;13.88;;;;;;;;;;5009615;28;20053;-75
2022/11/27 04:49:51;;;;;;;113.22;15.90;;;;;;;;;;5015035;28;20026;-75
2022/11/27 04:52:16;;;;;;;58.92;12.65;;;;;;;;;;5008755;28;20033;-76
2022/11/27 04:54:42;;;;;;;46.20;11.00;;;;;;;;;;5018826;28;20033;-76
2022/11/27 04:57:08;;;;;;;100.53;19.10;;;;;;;;;;4991954;28;20088;-75
2022/11/27 04:59:34;;;;;;;53.78;11.10;;;;;;;;;;5018152;28;20065;-76
2022/11/27 05:02:00;;;;;;;149.50;18.88;;;;;;;;;;4981877;28;20029;-76
2022/11/27 05:04:28;;;;;;;74.82;14.73;;;;;;;;;;5023828;28;20040;-75
2022/11/27 05:06:54;;;;;;;61.03;11.82;;;;;;;;;;5009734;28;20042;-74
2022/11/27 05:09:22;;;;;;;65.75;11.52;;;;;;;;;;4994206;28;20443;-75
2022/11/27 05:11:48;;;;;;;76.97;14.27;;;;;;;;;;4974152;28;20041;-75
2022/11/27 05:14:15;;;;;;;55.17;15.15;;;;;;;;;;5011149;28;20037;-75
2022/11/27 05:16:43;;;;;;;113.15;18.33;;;;;;;;;;5007989;28;20038;-75
2022/11/27 05:19:11;;;;;;;106.72;16.25;;;;;;;;;;4989123;28;20041;-75
2022/11/27 05:21:37;;;;;;;75.03;15.80;;;;;;;;;;5010312;28;20042;-75
2022/11/27 05:24:03;;;;;;;68.75;12.98;;;;;;;;;;5011664;28;20030;-75
2022/11/27 05:26:29;;;;;;;72.45;12.18;;;;;;;;;;5009690;28;20034;-76
2022/11/27 05:28:55;;;;;;;107.25;12.10;;;;;;;;;;4992197;28;20100;-76
2022/11/27 05:31:24;;;;;;;54.72;12.38;;;;;;;;;;4991235;28;20065;-76
2022/11/27 05:33:49;;;;;;;82.35;13.02;;;;;;;;;;5001414;28;20053;-76
2022/11/27 05:36:15;;;;;;;36.42;12.00;;;;;;;;;;4974746;28;20063;-76
2022/11/27 05:38:41;;;;;;;70.40;13.98;;;;;;;;;;5011826;28;20480;-76
2022/11/27 05:41:07;;;;;;;75.20;16.15;;;;;;;;;;5013289;28;20117;-75
2022/11/27 05:43:36;;;;;;;105.47;19.25;;;;;;;;;;5009265;28;20030;-75
2022/11/27 05:46:07;;;;;;;70.40;13.02;;;;;;;;;;5005362;28;20476;-75
2022/11/27 05:48:34;;;;;;;75.90;13.57;;;;;;;;;;5008098;28;20041;-75
2022/11/27 05:51:00;;;;;;;80.03;13.60;;;;;;;;;;5002126;28;20034;-75
2022/11/27 05:53:26;;;;;;;88.18;13.25;;;;;;;;;;5008250;28;20395;-76
2022/11/27 05:55:52;;;;;;;74.90;14.60;;;;;;;;;;5009973;28;20037;-76
2022/11/27 05:58:18;;;;;;;100.45;12.77;;;;;;;;;;5007844;28;20064;-76
2022/11/27 06:00:46;;;;;;;21.92;8.68;;;;;;;;;;5017781;28;20063;-76
2022/11/27 06:03:17;;;;;;;55.72;12.90;;;;;;;;;;5009582;28;20038;-76
2022/11/27 06:05:43;;;;;;;69.00;10.98;;;;;;;;;;4999724;28;20121;-76
2022/11/27 06:08:09;;;;;;;75.15;17.15;;;;;;;;;;5008249;28;20542;-76
2022/11/27 06:10:39;;;;;;;137.32;20.00;;;;;;;;;;5008922;28;20034;-76
2022/11/27 06:13:05;;;;;;;84.07;15.20;;;;;;;;;;5006737;28;20391;-76
2022/11/27 06:15:31;;;;;;;47.85;11.65;;;;;;;;;;5007162;28;20492;-76
2022/11/27 06:17:57;;;;;;;82.60;13.00;;;;;;;;;;5010270;28;20038;-75
2022/11/27 06:20:26;;;;;;;83.78;11.95;;;;;;;;;;5008546;28;20041;-75
2022/11/27 06:22:54;;;;;;;84.65;11.10;;;;;;;;;;5009100;28;20026;-75
2022/11/27 06:25:20;;;;;;;41.05;10.95;;;;;;;;;;5011186;28;20034;-75
2022/11/27 06:27:46;;;;;;;23.33;9.60;;;;;;;;;;5011785;28;20025;-75
2022/11/27 06:30:12;;;;;;;40.15;7.53;;;;;;;;;;5000832;28;20029;-75
2022/11/27 06:32:40;;;;;;;18.17;6.53;;;;;;;;;;5013058;28;20026;-75
2022/11/27 06:35:08;;;;;;;51.55;9.05;;;;;;;;;;4994678;28;20034;-75
2022/11/27 06:37:34;;;;;;;27.58;7.72;;;;;;;;;;5013162;28;20041;-75
2022/11/27 06:40:03;;;;;;;39.10;9.25;;;;;;;;;;5011399;28;20030;-75
2022/11/27 06:42:31;;;;;;;23.40;10.10;;;;;;;;;;5011415;28;20021;-75
2022/11/27 06:44:56;;;;;;;56.78;9.20;;;;;;;;;;5017968;28;20021;-75
2022/11/27 06:47:23;;;;;;;35.67;9.18;;;;;;;;;;4996038;28;20395;-75
2022/11/27 06:49:48;;;;;;;24.90;8.18;;;;;;;;;;4973019;28;20391;-75
2022/11/27 06:52:14;;;;;;;25.85;8.15;;;;;;;;;;4994773;28;20038;-75
2022/11/27 06:54:42;;;;;;;19.27;6.72;;;;;;;;;;5010732;28;20026;-75
2022/11/27 06:57:10;;;;;;;9.57;6.50;;;;;;;;;;5005235;28;20042;-75
2022/11/27 06:59:35;;;;;;;13.25;6.97;;;;;;;;;;5011187;28;20037;-75
2022/11/27 07:02:11;;;;;;;29.23;7.88;;;;;;;;;;5011170;28;20447;-75
2022/11/27 07:04:37;;;;;;;11.63;5.57;;;;;;;;;;4998295;28;20041;-75
2022/11/27 07:07:03;;;;;;;14.68;7.55;;;;;;;;;;5012518;28;20038;-74
2022/11/27 07:09:28;;;;;;;22.50;8.30;;;;;;;;;;4995518;28;20081;-75
2022/11/27 07:11:57;;;;;;;49.55;6.80;;;;;;;;;;5011104;28;20026;-75
2022/11/27 07:14:22;;;;;;;18.42;8.35;;;;;;;;;;5011650;28;20384;-74
2022/11/27 07:16:51;;;;;;;28.67;8.20;;;;;;;;;;5011391;28;20045;-75
2022/11/27 07:19:17;;;;;;;7.53;5.82;;;;;;;;;;5011495;28;20033;-75
2022/11/27 07:21:45;;;;;;;18.63;10.02;;;;;;;;;;4993047;28;20029;-75
2022/11/27 07:24:13;;;;;;;22.05;12.00;;;;;;;;;;4994125;23;20515;-81
2022/11/27 07:26:39;;;;;;;27.50;8.20;;;;;;;;;;5015324;28;20041;-81
2022/11/27 07:29:05;;;;;;;42.72;10.45;;;;;;;;;;5008533;28;20033;-81
2022/11/27 07:31:31;;;;;;;80.53;13.25;;;;;;;;;;5018951;28;20656;-81
2022/11/27 07:33:59;;;;;;;73.05;12.98;;;;;;;;;;5026243;28;20113;-80
2022/11/27 07:36:30;;;;;;;42.33;9.30;;;;;;;;;;5005509;28;20033;-80
2022/11/27 07:38:56;;;;;;;106.20;13.23;;;;;;;;;;5012695;28;20030;-81
2022/11/27 07:41:22;;;;;;;59.60;11.07;;;;;;;;;;5013885;28;20030;-80
2022/11/27 07:43:51;;;;;;;74.88;9.90;;;;;;;;;;4991369;28;20080;-80
2022/11/27 07:46:18;;;;;;;42.00;8.55;;;;;;;;;;4998681;28;20033;-80
2022/11/27 07:48:44;;;;;;;114.70;14.02;;;;;;;;;;5018434;28;20033;-80
2022/11/27 07:51:11;;;;;;;53.38;9.73;;;;;;;;;;5009061;28;20523;-80
2022/11/27 07:53:40;;;;;;;26.33;8.45;;;;;;;;;;4983731;28;20037;-80
2022/11/27 07:56:12;;;;;;;25.80;10.82;;;;;;;;;;5009326;28;20403;-80
2022/11/27 07:58:38;;;;;;;23.20;9.82;;;;;;;;;;4987799;28;20746;-81
2022/11/27 08:01:07;;;;;;;23.00;8.48;;;;;;;;;;5000437;28;20037;-81
2022/11/27 08:03:33;;;;;;;11.85;7.32;;;;;;;;;;5013015;28;20026;-81
2022/11/27 08:05:59;;;;;;;17.70;7.68;;;;;;;;;;5004137;28;20041;-81
2022/11/27 08:08:30;;;;;;;15.60;8.63;;;;;;;;;;5020390;28;20018;-81
2022/11/27 08:10:55;;;;;;;9.18;8.05;;;;;;;;;;4996585;28;20034;-81
2022/11/27 08:13:24;;;;;;;11.77;7.22;;;;;;;;;;5014853;28;20021;-81
2022/11/27 08:15:49;;;;;;;12.35;7.55;;;;;;;;;;5018460;28;20507;-81
2022/11/27 08:18:17;;;;;;;15.02;9.18;;;;;;;;;;5015690;28;20058;-81
2022/11/27 08:20:48;;;;;;;7.97;7.20;;;;;;;;;;4992388;28;20052;-81
2022/11/27 08:23:14;;;;;;;9.93;8.18;;;;;;;;;;5000852;28;20053;-81
2022/11/27 08:25:42;;;;;;;10.73;6.90;;;;;;;;;;4992639;28;20042;-81
2022/11/27 08:28:08;;;;;;;6.55;5.90;;;;;;;;;;5007657;28;20411;-81
2022/11/27 08:30:36;;;;;;;9.27;6.13;;;;;;;;;;5015660;28;20037;-81
2022/11/27 08:33:02;;;;;;;7.90;5.95;;;;;;;;;;5014301;28;20476;-81
2022/11/27 08:35:30;;;;;;;9.35;7.38;;;;;;;;;;5013059;28;20029;-81
2022/11/27 08:37:58;;;;;;;8.02;7.15;;;;;;;;;;4962073;28;20046;-81
2022/11/27 08:40:26;;;;;;;16.27;12.90;;;;;;;;;;4976685;28;20468;-82
2022/11/27 08:46:01;;;;;;;;;;;;;;;;;;4986154;28;20057;-82
2022/11/27 08:48:30;;;;;;;13.23;10.57;;;;;;;;;;5007892;28;19917;-82
2022/11/27 08:50:56;;;;;;;13.40;8.60;;;;;;;;;;4990577;28;20041;-82
2022/11/27 08:53:25;;;;;;;11.07;9.75;;;;;;;;;;5014037;28;20120;-82
2022/11/27 08:55:51;;;;;;;11.50;9.00;;;;;;;;;;5004352;28;20037;-82
2022/11/27 08:58:20;;;;;;;11.35;8.13;;;;;;;;;;5006522;28;20400;-82
2022/11/27 09:00:46;;;;;;;17.95;14.45;;;;;;;;;;4973727;28;20038;-82
2022/11/27 09:03:14;;;;;;;16.30;11.45;;;;;;;;;;5015134;28;20288;-82
2022/11/27 09:05:45;;;;;;;24.75;15.73;;;;;;;;;;4998999;28;20492;-82
2022/11/27 09:08:19;;;;;;;32.25;22.73;;;;;;;;;;4984927;28;20030;-82
2022/11/27 09:10:45;;;;;;;14.35;12.25;;;;;;;;;;4969502;28;20037;-82
2022/11/27 09:13:11;;;;;;;17.85;12.55;;;;;;;;;;5006561;28;20048;-83
2022/11/27 09:15:36;;;;;;;11.65;9.88;;;;;;;;;;4986300;28;20026;-83
2022/11/27 09:18:02;;;;;;;14.98;9.85;;;;;;;;;;5006157;28;20030;-82
2022/11/27 09:20:28;;;;;;;13.80;10.80;;;;;;;;;;5001644;28;20471;-83
2022/11/27 09:22:54;;;;;;;21.50;11.35;;;;;;;;;;4994099;28;20391;-82
2022/11/27 09:25:20;;;;;;;17.05;9.93;;;;;;;;;;4987282;28;20037;-83
2022/11/27 09:27:46;;;;;;;11.43;9.70;;;;;;;;;;4985371;28;20418;-83
2022/11/27 09:30:12;;;;;;;11.32;9.00;;;;;;;;;;5000405;28;20037;-83
2022/11/27 09:32:38;;;;;;;13.23;10.20;;;;;;;;;;5006359;28;20033;-83
2022/11/27 09:35:04;;;;;;;11.38;8.98;;;;;;;;;;5009049;28;20030;-83
2022/11/27 09:37:30;;;;;;;14.13;10.63;;;;;;;;;;4992052;28;20038;-81
2022/11/27 09:39:56;;;;;;;14.02;9.60;;;;;;;;;;4984404;28;20200;-83
2022/11/27 09:42:44;;;;;;;10.98;8.05;;;;;;;;;;5008121;28;20041;-82
2022/11/27 09:45:13;;;;;;;9.88;8.77;;;;;;;;;;5006934;28;20034;-82
2022/11/27 09:47:40;;;;;;;10.73;9.32;;;;;;;;;;5008651;28;20038;-82
2022/11/27 09:50:10;;;;;;;14.52;8.63;;;;;;;;;;4990547;28;20493;-82
2022/11/27 09:52:51;;;;;;;14.20;9.40;;;;;;;;;;5013928;28;20041;-82
2022/11/27 09:55:23;;;;;;;9.50;8.15;;;;;;;;;;5013724;28;20030;-82
2022/11/27 09:57:56;;;;;;;12.70;8.85;;;;;;;;;;5000308;28;20056;-82
2022/11/27 10:00:22;;;;;;;10.88;8.13;;;;;;;;;;4979071;28;20029;-83
2022/11/27 10:02:48;;;;;;;14.32;9.65;;;;;;;;;;5022589;28;20037;-82
2022/11/27 10:05:20;;;;;;;9.77;8.60;;;;;;;;;;5018878;28;20177;-83
2022/11/27 10:07:58;;;;;;;13.40;7.93;;;;;;;;;;5020493;28;20030;-83
2022/11/27 10:10:40;;;;;;;10.57;9.52;;;;;;;;;;4995247;28;20034;-83
2022/11/27 10:13:16;;;;;;;11.02;8.98;;;;;;;;;;4987177;28;20037;-83
2022/11/27 10:15:42;;;;;;;11.38;8.63;;;;;;;;;;4998509;28;20041;-83
2022/11/27 10:18:11;;;;;;;13.68;8.18;;;;;;;;;;5007793;28;20021;-84
2022/11/27 10:20:39;;;;;;;15.13;8.73;;;;;;;;;;5009346;28;20034;-84
2022/11/27 10:23:21;;;;;;;10.10;7.22;;;;;;;;;;4998901;28;20029;-84
2022/11/27 10:25:49;;;;;;;17.08;8.60;;;;;;;;;;5026001;28;20045;-84
2022/11/27 10:28:18;;;;;;;8.65;6.82;;;;;;;;;;5010216;28;20399;-84
2022/11/27 10:30:53;;;;;;;11.18;7.30;;;;;;;;;;5007413;28;20037;-83
2022/11/27 10:33:21;;;;;;;11.52;7.93;;;;;;;;;;4996335;28;20034;-84
2022/11/27 10:35:48;;;;;;;12.13;6.88;;;;;;;;;;5023371;28;20029;-84
2022/11/27 10:38:17;;;;;;;10.55;6.22;;;;;;;;;;5004930;28;20034;-84
2022/11/27 10:40:51;;;;;;;9.45;7.18;;;;;;;;;;4994925;28;20029;-84
2022/11/27 10:43:18;;;;;;;13.77;8.43;;;;;;;;;;4982782;28;20484;-83
2022/11/27 10:45:47;;;;;;;9.93;8.80;;;;;;;;;;5003492;28;20041;-84
2022/11/27 10:48:13;;;;;;;9.63;7.63;;;;;;;;;;5009315;28;20022;-83
2022/11/27 10:50:40;;;;;;;11.68;6.30;;;;;;;;;;5013490;28;20384;-83
2022/11/27 10:53:08;;;;;;;8.85;6.78;;;;;;;;;;4986467;28;20403;-83
2022/11/27 10:55:34;;;;;;;10.13;6.72;;;;;;;;;;4988079;28;20034;-83
2022/11/27 10:58:18;;;;;;;9.38;8.45;;;;;;;;;;5005321;28;20033;-83
2022/11/27 11:00:44;;;;;;;10.38;5.70;;;;;;;;;;5013678;28;20040;-84
2022/11/27 11:03:16;;;;;;;8.30;5.70;;;;;;;;;;5022309;28;20402;-84
2022/11/27 11:05:53;;;;;;;10.38;7.05;;;;;;;;;;5021679;28;20037;-84
2022/11/27 11:08:19;;;;;;;7.50;6.35;;;;;;;;;;5025776;28;20371;-83
2022/11/27 11:10:46;;;;;;;6.20;4.78;;;;;;;;;;4993631;28;20041;-84
2022/11/27 11:13:14;;;;;;;13.50;6.95;;;;;;;;;;4986019;28;20022;-84
2022/11/27 11:15:48;;;;;;;8.50;6.32;;;;;;;;;;5016798;28;20030;-84
2022/11/27 11:18:15;;;;;;;8.02;5.20;;;;;;;;;;4995079;28;20042;-84
2022/11/27 11:20:43;;;;;;;6.88;5.05;;;;;;;;;;5000176;28;20031;-84
2022/11/27 11:23:17;;;;;;;7.35;5.30;;;;;;;;;;5004063;28;20032;-84
2022/11/27 11:25:48;;;;;;;7.03;4.57;;;;;;;;;;4998695;28;20368;-84
2022/11/27 11:28:17;;;;;;;6.88;4.85;;;;;;;;;;4995715;28;20040;-84
2022/11/27 11:30:51;;;;;;;13.57;5.72;;;;;;;;;;4991640;28;20043;-84
2022/11/27 11:33:17;;;;;;;15.13;5.85;;;;;;;;;;5008377;28;20026;-84
2022/11/27 11:35:49;;;;;;;11.80;4.90;;;;;;;;;;5003759;28;20435;-84
2022/11/27 11:38:16;;;;;;;6.90;4.75;;;;;;;;;;5021351;28;20038;-84
2022/11/27 11:40:45;;;;;;;8.88;5.50;;;;;;;;;;4972285;28;20037;-84
2022/11/27 11:43:28;;;;;;;8.63;5.18;;;;;;;;;;4991598;28;20034;-84
2022/11/27 11:46:02;;;;;;;5.22;4.72;;;;;;;;;;4999100;28;20042;-84
2022/11/27 11:48:28;;;;;;;5.43;4.43;;;;;;;;;;5001744;28;20041;-83
2022/11/27 11:50:53;;;;;;;6.38;4.68;;;;;;;;;;5001945;28;20038;-84
2022/11/27 11:53:32;;;;;;;5.55;3.90;;;;;;;;;;4995953;28;20100;-83
2022/11/27 11:55:58;;;;;;;4.57;4.13;;;;;;;;;;5026041;28;20026;-84
2022/11/27 11:58:33;;;;;;;4.97;3.90;;;;;;;;;;4998573;28;20060;-84
2022/11/27 12:01:15;;;;;;;5.75;4.32;;;;;;;;;;5015523;28;20041;-83
2022/11/27 12:03:41;;;;;;;5.05;3.97;;;;;;;;;;4994207;28;20037;-84
2022/11/27 12:06:26;;;;;;;5.32;3.88;;;;;;;;;;5018815;28;20022;-83
2022/11/27 12:09:02;;;;;;;4.30;3.80;;;;;;;;;;5019588;28;20034;-84
2022/11/27 12:11:31;;;;;;;5.20;3.20;;;;;;;;;;4994609;28;20033;-85
2022/11/27 12:14:17;;;;;;;5.35;3.53;;;;;;;;;;5006857;28;20527;-84
2022/11/27 12:16:49;;;;;;;4.75;3.22;;;;;;;;;;5002593;28;20309;-83
2022/11/27 12:19:24;;;;;;;7.05;4.65;;;;;;;;;;4995451;28;20033;-84
2022/11/27 12:22:16;;;;;;;7.35;5.18;;;;;;;;;;5001614;28;20036;-84
2022/11/27 12:24:48;;;;;;;7.53;4.03;;;;;;;;;;4995248;28;20399;-83
2022/11/27 12:27:21;;;;;;;7.32;3.85;;;;;;;;;;4998433;28;20049;-84
2022/11/27 12:29:47;;;;;;;5.80;2.95;;;;;;;;;;4984164;28;20467;-83
2022/11/27 12:32:20;;;;;;;4.80;4.13;;;;;;;;;;5011342;28;20064;-84
2022/11/27 12:34:49;;;;;;;4.32;3.42;;;;;;;;;;5009055;28;20030;-83
2022/11/27 12:37:22;;;;;;;6.13;4.88;;;;;;;;;;4999749;28;20040;-83
2022/11/27 12:39:51;;;;;;;6.18;3.55;;;;;;;;;;5001673;28;20393;-83
2022/11/27 12:42:30;;;;;;;8.13;4.38;;;;;;;;;;5018505;28;20034;-84
2022/11/27 12:45:03;;;;;;;4.82;4.20;;;;;;;;;;5019061;28;20026;-84
2022/11/27 12:47:29;;;;;;;8.35;4.40;;;;;;;;;;5029600;28;20029;-82
2022/11/27 12:50:01;;;;;;;4.22;3.08;;;;;;;;;;5040036;28;20052;-83
2022/11/27 12:52:31;;;;;;;3.88;3.05;;;;;;;;;;5023004;28;20041;-83
2022/11/27 12:55:00;;;;;;;4.95;3.35;;;;;;;;;;5011041;28;20045;-84
2022/11/27 12:57:40;;;;;;;6.00;3.40;;;;;;;;;;5022794;28;20045;-83
2022/11/27 13:00:13;;;;;;;3.20;2.42;;;;;;;;;;4987533;28;20037;-84
2022/11/27 13:02:58;;;;;;;4.97;3.73;;;;;;;;;;4993988;28;20034;-83
2022/11/27 13:05:29;;;;;;;4.03;3.50;;;;;;;;;;4992911;28;20782;-83
2022/11/27 13:08:21;;;;;;;5.82;3.75;;;;;;;;;;5018684;28;20033;-84
2022/11/27 13:10:51;;;;;;;16.60;3.13;;;;;;;;;;5015735;28;20048;-84
2022/11/27 13:13:22;;;;;;;4.18;2.75;;;;;;;;;;5023356;28;20490;-84
2022/11/27 13:15:51;;;;;;;6.22;2.90;;;;;;;;;;5009966;28;20068;-84
2022/11/27 13:18:29;;;;;;;3.97;3.30;;;;;;;;;;5018351;28;20030;-84
2022/11/27 13:21:01;;;;;;;4.68;3.38;;;;;;;;;;5011626;28;20503;-83
2022/11/27 13:23:31;;;;;;;3.55;2.72;;;;;;;;;;5016351;28;20029;-83
2022/11/27 13:26:00;;;;;;;4.85;3.05;;;;;;;;;;5008283;23;20053;-74
2022/11/27 13:28:30;;;;;;;7.25;3.80;;;;;;;;;;5006333;28;20479;-74
2022/11/27 13:30:57;;;;;;;5.38;4.00;;;;;;;;;;4991462;28;20030;-75
2022/11/27 13:33:33;;;;;;;3.45;2.90;;;;;;;;;;5011371;28;20072;-74
2022/11/27 13:36:02;;;;;;;5.75;3.85;;;;;;;;;;4942923;28;20030;-74
2022/11/27 13:38:29;;;;;;;3.53;2.38;;;;;;;;;;4964783;28;20042;-75
2022/11/27 13:41:04;;;;;;;4.55;2.40;;;;;;;;;;4972068;28;20037;-75
2022/11/27 13:43:38;;;;;;;6.15;3.47;;;;;;;;;;4989618;28;20027;-75
2022/11/27 13:46:06;;;;;;;3.38;3.03;;;;;;;;;;4960850;28;20038;-75
2022/11/27 13:48:33;;;;;;;4.38;3.97;;;;;;;;;;4990492;28;20045;-75
2022/11/27 13:51:02;;;;;;;5.20;3.55;;;;;;;;;;4964992;28;20046;-75
2022/11/27 13:53:41;;;;;;;4.82;3.50;;;;;;;;;;4987758;28;20030;-75
2022/11/27 13:56:08;;;;;;;5.50;3.17;;;;;;;;;;4992297;28;20039;-75
2022/11/27 13:58:38;;;;;;;4.68;3.22;;;;;;;;;;4975045;28;20041;-75
2022/11/27 14:01:22;;;;;;;5.30;3.50;;;;;;;;;;4970050;28;20061;-75
2022/11/27 14:03:48;;;;;;;5.80;3.42;;;;;;;;;;4995473;28;20034;-75
2022/11/27 14:06:17;;;;;;;7.03;4.32;;;;;;;;;;4991759;28;20496;-75
2022/11/27 14:09:09;;;;;;;6.50;4.20;;;;;;;;;;4992354;28;20030;-75
2022/11/27 14:11:43;;;;;;;7.60;4.68;;;;;;;;;;4983109;28;20038;-76
2022/11/27 14:14:08;;;;;;;;;;;;;;;;;;4986180;28;20030;-72
2022/11/27 14:16:35;;;;;;;9.65;4.88;;;;;;;;;;4987754;28;20327;-73
2022/11/27 14:19:03;;;;;;;4.38;3.97;;;;;;;;;;4990008;28;20038;-74
2022/11/27 14:21:39;;;;;;;6.55;5.07;;;;;;;;;;4995054;28;20524;-76
2022/11/27 14:24:24;;;;;;;9.63;4.90;;;;;;;;;;4977424;28;20030;-74
2022/11/27 14:26:53;;;;;;;4.60;3.75;;;;;;;;;;4998206;28;20030;-74
2022/11/27 14:29:20;;;;;;;4.90;3.55;;;;;;;;;;4992325;28;20031;-75
2022/11/27 14:31:54;;;;;;;9.05;2.85;;;;;;;;;;4987324;28;20026;-75
2022/11/27 14:34:24;;;;;;;5.38;3.22;;;;;;;;;;5000074;28;20033;-74
2022/11/27 14:36:51;;;;;;;7.90;5.07;;;;;;;;;;5001415;28;20038;-75
2022/11/27 14:39:24;;;;;;;4.32;3.92;;;;;;;;;;4993065;28;20453;-75
2022/11/27 14:41:59;;;;;;;5.93;2.58;;;;;;;;;;4991236;28;20046;-75